Time;durP1;ratioP1;P1;durP2;ratioP2;P2;SDS_P1;SDS_P2;PMS_P1;PMS_P2;Temp;Humidity;BMP_temperature;BMP_pressure;BME280_temperature;BME280_humidity;BME280_pressure;Samples;Min_cycle;Max_cycle;Signal;HPM_P1;HPM_P2
2023/12/30 00:01:45;;;;;;;40.60;21.60;;;;;;;5.29;77.47;100049.00;5010674;28;20030;-25
2023/12/30 00:04:10;;;;;;;42.00;21.42;;;;;;;5.22;78.44;100040.13;5010596;28;20464;-24
2023/12/30 00:06:36;;;;;;;43.90;21.73;;;;;;;5.39;77.01;100039.16;5010748;28;20034;-25
2023/12/30 00:09:01;;;;;;;43.28;21.33;;;;;;;5.34;77.47;100036.16;5010610;28;20030;-25
2023/12/30 00:11:27;;;;;;;39.75;20.25;;;;;;;5.20;77.53;100034.19;5010645;28;20025;-25
2023/12/30 00:13:52;;;;;;;38.65;20.75;;;;;;;5.19;77.96;100032.50;5010688;28;20076;-25
2023/12/30 00:16:17;;;;;;;41.72;20.58;;;;;;;5.15;77.10;100034.63;5010896;28;20026;-25
2023/12/30 00:18:43;;;;;;;40.80;21.55;;;;;;;4.94;78.31;100037.72;5010717;28;20022;-25
2023/12/30 00:21:08;;;;;;;38.50;20.65;;;;;;;4.82;78.24;100037.19;5016397;28;20064;-25
2023/12/30 00:23:35;;;;;;;42.30;21.63;;;;;;;5.08;77.90;100041.53;5031040;28;20025;-25
2023/12/30 00:26:01;;;;;;;47.38;21.80;;;;;;;4.70;78.57;100038.44;5031143;28;20059;-25
2023/12/30 00:28:26;;;;;;;41.38;21.05;;;;;;;4.68;79.25;100045.66;5030774;28;20067;-25
2023/12/30 00:30:51;;;;;;;43.75;21.65;;;;;;;4.51;79.92;100042.13;5030965;28;20029;-25
2023/12/30 00:33:17;;;;;;;40.30;21.33;;;;;;;4.50;80.46;100040.50;5030841;28;20028;-25
2023/12/30 00:35:43;;;;;;;46.10;21.85;;;;;;;4.39;80.86;100040.75;5030881;28;20024;-25
2023/12/30 00:38:08;;;;;;;45.83;22.73;;;;;;;4.64;79.21;100039.88;5031111;28;20358;-25
2023/12/30 00:40:33;;;;;;;42.83;22.42;;;;;;;4.35;79.93;100031.50;5031161;28;20394;-25
2023/12/30 00:42:59;;;;;;;45.85;22.02;;;;;;;4.53;79.03;100032.25;5030729;28;20017;-25
2023/12/30 00:45:24;;;;;;;44.70;23.13;;;;;;;4.32;79.73;100035.25;5049095;28;20052;-25
2023/12/30 00:47:49;;;;;;;41.55;21.88;;;;;;;4.53;80.00;100034.06;5052611;28;20067;-25
2023/12/30 00:50:15;;;;;;;44.42;23.15;;;;;;;4.42;80.09;100033.38;5054807;28;20061;-25
2023/12/30 00:52:41;;;;;;;47.03;22.75;;;;;;;4.52;79.01;100032.44;5054505;28;20056;-25
2023/12/30 00:55:07;;;;;;;45.25;23.77;;;;;;;4.27;79.50;100027.84;5054617;28;20032;-25
2023/12/30 00:57:32;;;;;;;50.50;23.98;;;;;;;4.29;79.50;100028.50;5054411;28;20021;-25
2023/12/30 00:59:58;;;;;;;43.60;24.75;;;;;;;4.27;79.54;100032.28;5054480;28;20025;-25
2023/12/30 01:02:23;;;;;;;46.50;24.45;;;;;;;3.96;80.44;100024.84;5053952;28;20028;-25
2023/12/30 01:04:49;;;;;;;45.58;24.52;;;;;;;4.17;80.52;100039.44;5054169;28;20056;-25
2023/12/30 01:07:14;;;;;;;47.25;24.60;;;;;;;3.84;80.64;100033.97;5053899;28;20025;-25
2023/12/30 01:09:40;;;;;;;44.28;23.02;;;;;;;3.86;81.75;100024.91;5054160;28;20036;-26
2023/12/30 01:12:06;;;;;;;54.67;24.35;;;;;;;3.81;81.18;100032.47;5054115;28;20021;-25
2023/12/30 01:14:31;;;;;;;44.47;23.50;;;;;;;4.13;80.64;100036.31;5054230;28;20033;-25
2023/12/30 01:16:56;;;;;;;49.17;26.02;;;;;;;3.99;81.98;100029.78;5054116;28;20044;-26
2023/12/30 01:19:24;;;;;;;48.78;24.58;;;;;;;3.97;81.84;100023.03;5054120;28;20024;-25
2023/12/30 01:21:50;;;;;;;49.17;24.38;;;;;;;3.92;81.49;100028.75;5031820;28;20030;-25
2023/12/30 01:24:15;;;;;;;44.58;24.08;;;;;;;3.83;81.71;100035.78;5013959;28;20033;-25
2023/12/30 01:26:41;;;;;;;46.13;23.63;;;;;;;3.91;81.48;100035.81;5014333;28;20030;-25
2023/12/30 01:29:06;;;;;;;51.00;25.25;;;;;;;4.03;81.31;100028.50;5014050;28;20378;-25
2023/12/30 01:31:31;;;;;;;49.22;25.90;;;;;;;3.97;81.17;100028.31;5014122;28;20026;-25
2023/12/30 01:33:57;;;;;;;55.17;26.50;;;;;;;3.95;81.37;100033.72;5014263;28;20049;-25
2023/12/30 01:36:22;;;;;;;49.38;25.98;;;;;;;3.71;82.24;100031.72;5013920;28;20052;-25
2023/12/30 01:38:47;;;;;;;54.60;27.08;;;;;;;3.65;81.73;100027.06;5013549;28;20033;-26
2023/12/30 01:41:13;;;;;;;56.40;27.95;;;;;;;3.75;82.12;100029.59;5013662;28;20022;-26
2023/12/30 01:43:38;;;;;;;56.95;28.38;;;;;;;3.70;82.76;100032.69;5013770;28;20104;-26
2023/12/30 01:46:07;;;;;;;51.58;27.35;;;;;;;3.75;82.28;100025.19;5013558;28;20486;-26
2023/12/30 01:48:33;;;;;;;46.63;24.02;;;;;;;3.61;81.66;100010.75;5014267;28;20022;-26
2023/12/30 01:51:00;;;;;;;56.50;25.45;;;;;;;3.62;81.79;100015.03;5013662;28;20050;-26
2023/12/30 01:53:32;;;;;;;54.38;24.88;;;;;;;3.52;82.37;100004.59;5013867;28;20029;-25
2023/12/30 01:55:58;;;;;;;46.80;23.77;;;;;;;3.56;82.42;100001.66;5039821;28;20074;-25
2023/12/30 01:58:24;;;;;;;51.95;24.55;;;;;;;3.64;82.21;100010.44;5052711;28;20025;-25
2023/12/30 02:00:54;;;;;;;52.03;26.02;;;;;;;3.43;82.81;99994.16;5053086;28;20027;-25
2023/12/30 02:03:21;;;;;;;53.85;25.73;;;;;;;3.51;82.39;100004.75;5053251;28;20028;-26
2023/12/30 02:05:47;;;;;;;55.55;25.33;;;;;;;3.36;83.28;99998.34;5039129;28;20030;-26
2023/12/30 02:08:16;;;;;;;51.90;26.10;;;;;;;3.30;83.38;99999.78;5033522;28;20029;-26
2023/12/30 02:10:42;;;;;;;47.72;24.25;;;;;;;3.08;83.44;99990.50;5033233;28;20025;-26
2023/12/30 02:13:08;;;;;;;48.80;24.42;;;;;;;3.26;83.63;99980.03;5032830;28;20028;-26
2023/12/30 02:15:35;;;;;;;54.05;24.80;;;;;;;3.22;83.43;99997.06;5033002;28;20033;-25
2023/12/30 02:18:01;;;;;;;49.78;24.73;;;;;;;3.42;83.76;99990.69;5033241;28;20036;-26
2023/12/30 02:20:26;;;;;;;52.63;24.42;;;;;;;3.67;83.12;99998.78;5032560;28;20327;-25
2023/12/30 02:22:51;;;;;;;47.83;23.63;;;;;;;3.51;83.37;99992.41;5022243;28;20022;-26
2023/12/30 02:25:17;;;;;;;52.03;24.13;;;;;;;3.73;82.38;99998.16;5013318;28;20387;-25
2023/12/30 02:27:43;;;;;;;48.85;24.73;;;;;;;3.66;82.00;99989.25;5013314;28;20033;-26
2023/12/30 02:30:10;;;;;;;47.03;23.60;;;;;;;3.56;82.30;100009.53;5013186;28;20108;-26
2023/12/30 02:32:35;;;;;;;51.05;24.85;;;;;;;3.70;81.26;100001.13;5013149;28;20026;-27
2023/12/30 02:35:00;;;;;;;50.58;25.38;;;;;;;3.83;80.24;100001.53;5012873;28;20052;-26
2023/12/30 02:37:26;;;;;;;51.08;24.63;;;;;;;4.13;79.20;100011.78;5013024;28;20471;-26
2023/12/30 02:39:51;;;;;;;53.50;25.63;;;;;;;3.84;79.40;100010.25;5012814;28;20049;-26
2023/12/30 02:42:16;;;;;;;49.30;25.13;;;;;;;3.62;81.13;100019.47;5012510;28;20410;-26
2023/12/30 02:44:42;;;;;;;49.85;24.42;;;;;;;3.61;80.86;100016.00;5012961;28;20018;-26
2023/12/30 02:47:07;;;;;;;47.95;24.55;;;;;;;3.74;80.78;100020.06;5012910;28;20025;-26
2023/12/30 02:49:33;;;;;;;45.55;22.70;;;;;;;3.65;80.61;100011.25;5012291;28;20148;-26
2023/12/30 02:51:59;;;;;;;45.33;22.63;;;;;;;3.61;81.18;100018.63;5012779;28;20030;-26
2023/12/30 02:54:24;;;;;;;42.60;22.45;;;;;;;3.79;81.02;100020.41;5012624;28;20106;-26
2023/12/30 02:56:50;;;;;;;41.40;20.67;;;;;;;3.62;81.38;100022.13;5012539;28;20157;-26
2023/12/30 02:59:15;;;;;;;38.08;20.52;;;;;;;3.61;80.71;100012.56;5012186;28;20088;-25
2023/12/30 03:01:41;;;;;;;40.20;19.88;;;;;;;3.70;81.09;100016.91;5012250;28;20054;-25
2023/12/30 03:04:06;;;;;;;44.35;20.88;;;;;;;3.86;79.69;100014.38;5012194;28;20475;-26
2023/12/30 03:06:31;;;;;;;46.67;21.77;;;;;;;3.77;80.28;100030.28;5012423;28;20022;-26
2023/12/30 03:08:57;;;;;;;39.75;20.55;;;;;;;3.72;80.25;100028.94;5012778;28;20026;-25
2023/12/30 03:11:23;;;;;;;41.10;22.50;;;;;;;3.67;79.89;100030.34;5010861;28;20418;-26
2023/12/30 03:13:48;;;;;;;45.25;22.98;;;;;;;3.66;79.22;100021.66;5012369;28;20060;-25
2023/12/30 03:16:14;;;;;;;47.60;23.65;;;;;;;3.42;80.19;100027.50;5012351;28;20125;-25
2023/12/30 03:18:43;;;;;;;41.10;21.85;;;;;;;3.35;81.04;100021.22;5012596;28;20017;-25
2023/12/30 03:21:10;;;;;;;42.40;22.10;;;;;;;3.29;81.29;100016.53;5017299;28;20021;-26
2023/12/30 03:23:36;;;;;;;37.00;20.27;;;;;;;3.35;81.67;100029.09;5031887;28;20132;-25
2023/12/30 03:26:03;;;;;;;37.95;19.80;;;;;;;3.53;81.25;100027.28;5032029;28;20106;-26
2023/12/30 03:28:28;;;;;;;37.42;19.55;;;;;;;3.61;81.58;100023.09;5031790;28;20021;-26
2023/12/30 03:30:54;;;;;;;41.35;19.00;;;;;;;3.74;80.95;100035.88;5031872;28;20488;-25
2023/12/30 03:33:19;;;;;;;41.00;20.55;;;;;;;3.61;80.97;100025.72;5027478;28;20076;-26
2023/12/30 03:35:45;;;;;;;38.58;20.08;;;;;;;3.53;81.92;100027.28;5012059;28;20107;-26
2023/12/30 03:38:10;;;;;;;37.92;19.35;;;;;;;3.50;81.46;100027.59;5012047;28;20033;-26
2023/12/30 03:40:35;;;;;;;38.95;20.48;;;;;;;3.61;80.07;100025.72;5011742;28;20026;-26
2023/12/30 03:43:01;;;;;;;38.25;18.90;;;;;;;3.62;80.47;100027.38;5012163;28;20026;-26
2023/12/30 03:45:26;;;;;;;41.40;18.40;;;;;;;3.31;81.54;100033.00;5010529;28;20026;-26
2023/12/30 03:47:52;;;;;;;44.90;22.23;;;;;;;3.02;82.19;100038.44;5011732;28;20111;-26
2023/12/30 03:50:18;;;;;;;45.10;20.52;;;;;;;2.92;82.55;100038.50;5011812;28;20046;-26
2023/12/30 03:52:43;;;;;;;41.20;20.25;;;;;;;2.87;83.50;100027.59;5009813;28;20029;-26
2023/12/30 03:55:09;;;;;;;38.67;20.38;;;;;;;3.05;83.68;100038.16;5014864;28;20029;-26
2023/12/30 03:57:34;;;;;;;40.10;20.10;;;;;;;3.22;82.48;100032.09;5014933;28;20112;-26
2023/12/30 04:00:00;;;;;;;37.42;21.13;;;;;;;3.16;81.95;100037.97;5026379;28;20508;-26
2023/12/30 04:02:26;;;;;;;39.50;21.67;;;;;;;3.27;80.97;100042.97;5051197;28;20465;-25
2023/12/30 04:04:51;;;;;;;39.72;20.92;;;;;;;3.17;81.05;100044.03;5051197;28;20025;-26
2023/12/30 04:07:16;;;;;;;41.42;21.40;;;;;;;3.17;81.35;100041.41;5051320;28;20564;-26
2023/12/30 04:09:42;;;;;;;34.92;18.70;;;;;;;3.32;81.58;100043.38;5051160;28;20021;-26
2023/12/30 04:12:07;;;;;;;37.85;20.05;;;;;;;3.20;82.08;100041.94;5032856;28;20532;-25
2023/12/30 04:14:33;;;;;;;38.13;19.77;;;;;;;3.27;82.65;100042.97;5031395;28;20394;-26
2023/12/30 04:16:58;;;;;;;37.92;19.70;;;;;;;3.17;82.14;100036.16;5030961;28;20028;-25
2023/12/30 04:19:24;;;;;;;39.03;20.58;;;;;;;3.31;81.96;100048.78;5031230;28;20032;-26
2023/12/30 04:21:50;;;;;;;36.92;19.05;;;;;;;3.10;83.45;100051.69;5031218;28;20072;-26
2023/12/30 04:24:15;;;;;;;38.45;18.80;;;;;;;3.14;82.84;100047.78;5053544;28;20113;-26
2023/12/30 04:26:43;;;;;;;40.28;18.40;;;;;;;3.26;82.62;100043.97;5055519;28;20021;-26
2023/12/30 04:29:09;;;;;;;33.40;16.92;;;;;;;3.17;82.90;100044.03;5055130;28;20055;-26
2023/12/30 04:31:34;;;;;;;37.05;19.17;;;;;;;2.97;82.83;100041.53;5054885;28;20110;-26
2023/12/30 04:33:59;;;;;;;37.47;20.63;;;;;;;3.10;81.34;100042.00;5054963;28;20060;-26
2023/12/30 04:36:25;;;;;;;41.17;19.75;;;;;;;3.02;81.76;100041.06;5054728;28;20036;-26
2023/12/30 04:38:50;;;;;;;39.17;19.65;;;;;;;2.94;83.19;100042.63;5054908;28;20496;-26
2023/12/30 04:41:16;;;;;;;36.75;19.65;;;;;;;2.92;83.09;100049.84;5055120;28;20031;-26
2023/12/30 04:43:41;;;;;;;43.63;19.40;;;;;;;2.68;83.39;100047.72;5054830;28;20102;-26
2023/12/30 04:46:06;;;;;;;36.70;19.17;;;;;;;3.04;83.46;100047.00;5054853;28;20021;-25
2023/12/30 04:48:32;;;;;;;40.55;20.25;;;;;;;3.16;81.26;100048.47;5054963;28;20128;-25
2023/12/30 04:50:58;;;;;;;43.80;20.52;;;;;;;3.21;81.38;100040.94;5054412;28;20052;-26
2023/12/30 04:53:23;;;;;;;37.00;19.80;;;;;;;3.33;81.23;100039.78;5054760;28;20060;-26
2023/12/30 04:55:49;;;;;;;33.60;18.60;;;;;;;3.33;81.09;100038.94;5054616;28;20021;-26
2023/12/30 04:58:15;;;;;;;38.83;19.42;;;;;;;3.25;80.96;100050.19;5054847;28;20025;-26
2023/12/30 05:00:40;;;;;;;37.50;18.83;;;;;;;3.16;81.71;100045.84;5054713;28;20072;-26
2023/12/30 05:03:06;;;;;;;36.83;18.92;;;;;;;2.89;81.25;100038.78;5045207;28;20021;-26
2023/12/30 05:05:31;;;;;;;39.15;19.50;;;;;;;2.79;81.66;100041.47;5015133;28;20436;-26
2023/12/30 05:07:56;;;;;;;36.60;18.98;;;;;;;2.77;81.70;100047.84;5015280;28;20018;-26
2023/12/30 05:10:22;;;;;;;38.45;19.67;;;;;;;2.74;82.18;100052.44;5014839;28;20028;-25
2023/12/30 05:12:49;;;;;;;38.40;18.33;;;;;;;2.85;82.40;100053.19;5015028;28;20018;-26
2023/12/30 05:15:14;;;;;;;38.63;19.50;;;;;;;2.86;82.70;100049.63;5015070;28;20462;-26
2023/12/30 05:17:40;;;;;;;41.88;20.02;;;;;;;2.65;83.90;100045.41;5014901;28;20029;-27
2023/12/30 05:20:08;;;;;;;36.80;18.83;;;;;;;2.75;81.85;100053.25;5014860;28;20026;-27
2023/12/30 05:22:34;;;;;;;31.20;17.33;;;;;;;2.51;83.09;100053.75;5030459;28;20022;-26
2023/12/30 05:25:00;;;;;;;38.75;18.73;;;;;;;2.77;82.54;100058.38;5034578;28;20477;-26
2023/12/30 05:27:25;;;;;;;35.17;17.17;;;;;;;2.82;81.43;100058.72;5034628;28;20079;-27
2023/12/30 05:29:50;;;;;;;37.50;18.63;;;;;;;2.62;82.66;100061.44;5034602;28;20048;-27
2023/12/30 05:32:16;;;;;;;39.33;19.65;;;;;;;2.62;81.87;100058.81;5034492;28;20021;-25
2023/12/30 05:34:41;;;;;;;37.38;19.20;;;;;;;3.00;81.67;100070.13;5033007;28;20090;-26
2023/12/30 05:37:07;;;;;;;34.75;18.33;;;;;;;2.76;81.28;100077.72;5034063;28;20033;-26
2023/12/30 05:39:33;;;;;;;35.00;18.23;;;;;;;2.62;81.54;100071.97;5034243;28;20025;-26
2023/12/30 05:41:58;;;;;;;37.70;19.23;;;;;;;2.57;82.40;100079.47;5034439;28;20408;-26
2023/12/30 05:44:23;;;;;;;35.55;18.40;;;;;;;2.70;81.41;100082.59;5034228;28;20676;-26
2023/12/30 05:46:51;;;;;;;37.95;19.00;;;;;;;2.48;83.44;100075.06;5034343;28;20060;-26
2023/12/30 05:49:16;;;;;;;39.50;19.40;;;;;;;2.44;83.82;100077.16;5034008;28;20183;-26
2023/12/30 05:51:42;;;;;;;38.08;20.15;;;;;;;2.53;83.66;100076.31;5034118;28;20485;-25
2023/12/30 05:54:10;;;;;;;37.47;18.98;;;;;;;2.50;82.56;100081.00;5034063;28;20025;-25
2023/12/30 05:56:36;;;;;;;40.35;20.63;;;;;;;2.53;83.44;100067.56;5033070;28;20519;-26
2023/12/30 05:59:02;;;;;;;41.72;19.85;;;;;;;2.46;82.34;100074.38;5033234;28;20021;-25
2023/12/30 06:01:27;;;;;;;38.30;18.65;;;;;;;2.34;82.84;100079.81;5033346;28;20051;-25
2023/12/30 06:03:53;;;;;;;37.35;18.35;;;;;;;1.99;84.03;100082.22;5033369;28;20401;-25
2023/12/30 06:06:19;;;;;;;35.67;18.45;;;;;;;1.95;85.05;100079.84;5032585;28;20116;-25
2023/12/30 06:08:45;;;;;;;37.35;19.48;;;;;;;2.12;85.81;100064.38;5032718;28;20035;-25
2023/12/30 06:11:11;;;;;;;36.53;19.63;;;;;;;2.17;85.44;100070.03;5032888;28;20633;-25
2023/12/30 06:13:39;;;;;;;35.28;18.80;;;;;;;2.39;85.07;100082.00;5032869;28;20020;-26
2023/12/30 06:16:05;;;;;;;39.17;19.58;;;;;;;2.43;85.21;100062.34;5032353;28;20026;-26
2023/12/30 06:18:33;;;;;;;33.58;18.27;;;;;;;2.88;84.81;100073.94;5031874;28;20018;-26
2023/12/30 06:20:58;;;;;;;36.53;18.35;;;;;;;3.18;82.98;100085.13;5031671;28;20139;-26
2023/12/30 06:23:24;;;;;;;38.38;19.52;;;;;;;3.52;82.72;100101.13;5031479;28;20157;-25
2023/12/30 06:25:49;;;;;;;37.22;19.23;;;;;;;3.63;81.94;100100.91;5032104;28;20029;-27
2023/12/30 06:28:15;;;;;;;35.65;18.63;;;;;;;3.80;80.72;100103.69;5030655;28;20169;-26
2023/12/30 06:30:40;;;;;;;39.15;18.83;;;;;;;4.03;79.32;100096.97;5032291;28;20045;-27
2023/12/30 06:33:08;;;;;;;35.90;19.55;;;;;;;4.21;78.77;100089.06;5032636;28;20040;-26
2023/12/30 06:35:34;;;;;;;37.30;20.23;;;;;;;4.37;77.88;100098.06;5032870;28;20021;-26
2023/12/30 06:38:00;;;;;;;37.92;20.33;;;;;;;4.78;75.57;100101.78;5032731;28;20025;-26
2023/12/30 06:40:26;;;;;;;41.28;21.38;;;;;;;4.92;74.47;100096.88;5032521;28;20034;-27
2023/12/30 06:42:52;;;;;;;36.08;19.98;;;;;;;5.24;72.02;100104.94;5032733;28;20045;-27
2023/12/30 06:45:17;;;;;;;42.20;22.27;;;;;;;5.04;72.20;100098.25;5032018;28;20041;-26
2023/12/30 06:47:43;;;;;;;41.35;22.02;;;;;;;4.98;74.08;100104.16;5032578;28;20551;-26
2023/12/30 06:50:10;;;;;;;42.17;21.77;;;;;;;4.73;75.76;100103.22;5032206;28;20049;-26
2023/12/30 06:52:36;;;;;;;39.60;22.08;;;;;;;4.67;76.30;100104.69;5032339;28;20108;-26
2023/12/30 06:55:01;;;;;;;38.00;20.13;;;;;;;6.29;86.74;100111.53;5032424;28;20112;-26
2023/12/30 06:57:27;;;;;;;39.63;21.73;;;;;;;7.16;77.81;100108.97;5032261;28;20175;-26
2023/12/30 06:59:52;;;;;;;36.67;20.55;;;;;;;7.48;73.26;100107.97;5032416;28;20531;-26
2023/12/30 07:02:18;;;;;;;37.20;21.08;;;;;;;7.40;70.85;100115.97;5031901;28;20430;-26
2023/12/30 07:04:43;;;;;;;40.63;21.05;;;;;;;7.88;70.09;100108.75;5030427;28;20025;-25
2023/12/30 07:07:08;;;;;;;37.03;21.10;;;;;;;8.25;69.68;100116.91;5031688;28;20033;-27
2023/12/30 07:09:34;;;;;;;37.65;20.85;;;;;;;8.01;64.73;100118.75;5032065;28;20047;-27
2023/12/30 07:11:59;;;;;;;42.35;23.15;;;;;;;7.62;64.57;100115.19;5031760;28;20017;-26
2023/12/30 07:14:24;;;;;;;42.67;22.73;;;;;;;7.54;64.28;100112.59;5031485;28;20021;-26
2023/12/30 07:16:50;;;;;;;38.78;22.70;;;;;;;7.13;65.63;100117.28;5031527;28;20136;-27
2023/12/30 07:19:16;;;;;;;41.67;22.50;;;;;;;6.16;69.42;100114.66;5031060;28;20539;-26
2023/12/30 07:21:41;;;;;;;39.75;22.27;;;;;;;6.31;69.98;100113.00;5030926;28;20025;-25
2023/12/30 07:24:07;;;;;;;41.75;23.00;;;;;;;6.55;69.88;100101.59;5030958;28;20022;-26
2023/12/30 07:26:32;;;;;;;37.88;21.30;;;;;;;6.87;69.01;100112.22;5031314;28;20029;-26
2023/12/30 07:28:59;;;;;;;39.15;21.88;;;;;;;6.94;69.07;100115.84;5031358;28;20025;-26
2023/12/30 07:31:25;;;;;;;46.08;23.08;;;;;;;7.05;68.85;100116.31;5031273;28;20030;-27
2023/12/30 07:33:51;;;;;;;37.92;20.77;;;;;;;7.61;65.44;100118.00;5031594;28;20080;-26
2023/12/30 07:36:16;;;;;;;37.80;20.25;;;;;;;7.54;65.84;100125.00;5031354;28;20646;-26
2023/12/30 07:38:42;;;;;;;39.92;20.88;;;;;;;7.30;68.49;100124.16;5031636;28;20021;-26
2023/12/30 07:41:07;;;;;;;38.53;21.08;;;;;;;7.19;68.96;100127.16;5031423;28;20021;-27
2023/12/30 07:43:32;;;;;;;36.10;20.52;;;;;;;7.22;67.90;100119.72;5031515;28;20480;-26
2023/12/30 07:45:58;;;;;;;38.05;20.73;;;;;;;8.02;66.15;100123.88;5031193;28;20068;-27
2023/12/30 07:48:23;;;;;;;36.78;21.02;;;;;;;8.81;62.75;100120.00;5045195;28;20024;-26
2023/12/30 07:50:48;;;;;;;39.13;21.05;;;;;;;8.84;61.76;100124.16;5051226;28;20052;-28
2023/12/30 07:53:14;;;;;;;39.88;20.80;;;;;;;8.93;69.06;100128.34;5050970;28;20060;-27
2023/12/30 07:55:39;;;;;;;40.88;21.67;;;;;;;9.49;62.22;100126.00;5051161;28;20025;-26
2023/12/30 07:58:05;;;;;;;38.47;21.15;;;;;;;9.11;61.29;100126.16;5048135;28;20477;-40
2023/12/30 08:00:30;;;;;;;36.78;21.38;;;;;;;9.97;59.82;100136.09;5050185;28;20048;-39
2023/12/30 08:02:55;;;;;;;37.63;21.95;;;;;;;9.55;60.22;100135.88;5050744;28;20104;-38
2023/12/30 08:05:21;;;;;;;44.80;23.75;;;;;;;9.03;61.47;100138.72;5034486;28;20026;-39
2023/12/30 08:07:46;;;;;;;46.78;25.55;;;;;;;8.99;61.74;100141.72;5030956;28;20520;-36
2023/12/30 08:10:11;;;;;;;41.45;23.33;;;;;;;10.05;60.16;100146.63;5030788;28;20022;-41
2023/12/30 08:12:38;;;;;;;40.17;23.25;;;;;;;9.98;59.75;100146.56;5030879;28;20026;-40
2023/12/30 08:15:04;;;;;;;37.92;22.63;;;;;;;10.00;60.07;100146.38;5030669;28;20436;-41
2023/12/30 08:17:30;;;;;;;37.45;23.38;;;;;;;11.05;56.26;100149.25;5031046;28;20021;-39
2023/12/30 08:19:55;;;;;;;42.78;24.40;;;;;;;10.70;56.19;100160.69;5030414;28;20021;-39
2023/12/30 08:22:22;;;;;;;43.95;24.65;;;;;;;10.47;56.30;100163.59;5030506;28;20068;-40
2023/12/30 08:24:50;;;;;;;40.67;24.45;;;;;;;10.81;55.97;100163.81;5030664;28;20074;-39
2023/12/30 08:27:15;;;;;;;40.33;23.77;;;;;;;11.10;54.67;100170.75;5030743;28;20025;-39
2023/12/30 08:29:40;;;;;;;42.45;23.63;;;;;;;10.47;56.15;100168.06;5030899;28;20078;-40
2023/12/30 08:32:06;;;;;;;42.55;24.27;;;;;;;10.37;57.15;100177.22;5030782;28;20477;-40
2023/12/30 08:34:33;;;;;;;39.63;23.33;;;;;;;11.11;54.73;100157.25;5030537;28;20018;-37
2023/12/30 08:36:58;;;;;;;40.70;23.50;;;;;;;11.15;54.13;100160.34;5030493;28;20032;-39
2023/12/30 08:39:25;;;;;;;41.38;22.23;;;;;;;10.94;54.51;100163.91;5030759;28;20022;-40
2023/12/30 08:41:51;;;;;;;43.58;24.02;;;;;;;11.07;54.91;100150.69;5030521;28;20122;-40
2023/12/30 08:44:16;;;;;;;41.95;22.83;;;;;;;11.34;54.13;100153.47;5030300;28;20049;-39
2023/12/30 08:46:41;;;;;;;40.60;23.02;;;;;;;11.43;52.48;100149.63;5030414;28;20029;-39
2023/12/30 08:49:07;;;;;;;41.05;22.15;;;;;;;11.50;52.56;100145.16;5030023;28;20034;-39
2023/12/30 08:51:32;;;;;;;35.72;20.70;;;;;;;11.93;51.84;100142.19;5029810;28;20443;-41
2023/12/30 08:53:58;;;;;;;37.38;20.77;;;;;;;12.19;51.29;100148.59;5030283;28;20037;-39
2023/12/30 08:56:23;;;;;;;31.88;16.60;;;;;;;11.80;51.45;100144.81;5030884;28;20500;-40
2023/12/30 08:58:49;;;;;;;27.20;13.80;;;;;;;11.81;50.90;100142.97;5021490;28;20013;-40
2023/12/30 09:01:14;;;;;;;35.63;17.30;;;;;;;12.35;51.66;100144.69;5016208;28;20091;-40
2023/12/30 09:03:39;;;;;;;32.35;16.92;;;;;;;11.82;51.77;100132.13;5018619;28;20061;-38
2023/12/30 09:06:05;;;;;;;22.27;13.68;;;;;;;11.59;51.46;100134.28;5029925;28;20029;-41
2023/12/30 09:08:31;;;;;;;27.40;15.88;;;;;;;11.32;52.41;100139.53;5029099;28;20104;-36
2023/12/30 09:10:56;;;;;;;28.63;15.23;;;;;;;12.19;49.91;100131.78;5040556;28;20416;-39
2023/12/30 09:13:23;;;;;;;30.65;14.63;;;;;;;12.22;49.46;100126.88;5036387;28;20083;-37
2023/12/30 09:15:50;;;;;;;25.40;11.20;;;;;;;11.88;50.40;100125.13;5033160;28;20021;-38
2023/12/30 09:18:16;;;;;;;22.23;10.68;;;;;;;11.67;50.04;100118.09;5018429;28;20539;-39
2023/12/30 09:20:42;;;;;;;16.75;9.80;;;;;;;11.83;49.91;100114.25;5042665;28;20025;-39
2023/12/30 09:23:07;;;;;;;15.23;9.43;;;;;;;12.66;47.65;100113.88;5033145;28;20397;-39
2023/12/30 09:25:32;;;;;;;17.50;9.63;;;;;;;12.56;47.75;100105.47;5026364;28;20365;-40
2023/12/30 09:27:58;;;;;;;15.23;9.07;;;;;;;12.46;47.49;100105.91;5028428;28;20159;-40
2023/12/30 09:30:23;;;;;;;22.48;9.77;;;;;;;12.11;48.99;100103.47;5024421;28;20506;-40
2023/12/30 09:32:49;;;;;;;21.15;9.95;;;;;;;13.05;47.60;100106.81;5032079;28;20025;-40
2023/12/30 09:35:15;;;;;;;17.92;9.90;;;;;;;13.34;45.29;100100.13;5033384;28;20057;-41
2023/12/30 09:37:40;;;;;;;21.80;10.23;;;;;;;12.66;47.19;100093.34;5033270;28;20025;-40
2023/12/30 09:40:06;;;;;;;19.13;10.18;;;;;;;12.93;45.78;100103.97;5033593;28;20033;-40
2023/12/30 09:42:32;;;;;;;19.88;9.98;;;;;;;13.65;45.34;100106.56;5033436;28;20033;-39
2023/12/30 09:44:58;;;;;;;18.38;10.00;;;;;;;13.72;44.08;100095.81;5032671;28;20057;-37
2023/12/30 09:47:24;;;;;;;18.50;9.63;;;;;;;13.64;44.69;100091.56;5046099;28;20385;-37
2023/12/30 09:49:50;;;;;;;20.92;9.40;;;;;;;13.35;45.19;100077.72;5032789;28;20114;-40
2023/12/30 09:52:15;;;;;;;16.95;8.70;;;;;;;13.41;45.46;100082.22;5032913;28;20127;-37
2023/12/30 09:54:41;;;;;;;18.33;8.93;;;;;;;13.81;44.09;100081.16;5033385;28;20106;-40
2023/12/30 09:57:06;;;;;;;19.05;9.63;;;;;;;13.62;44.68;100085.59;5032918;28;20026;-41
2023/12/30 09:59:40;;;;;;;16.77;9.38;;;;;;;13.55;44.61;100084.81;5033100;28;20091;-38
2023/12/30 10:02:09;;;;;;;14.68;8.90;;;;;;;13.48;45.46;100079.53;5033121;28;20140;-40
2023/12/30 10:04:35;;;;;;;14.27;8.82;;;;;;;14.45;43.84;100080.03;5032958;28;20491;-41
2023/12/30 10:07:01;;;;;;;18.95;9.20;;;;;;;13.92;44.27;100084.97;5032505;28;20068;-40
2023/12/30 10:09:29;;;;;;;17.88;9.82;;;;;;;13.75;45.00;100080.16;5034301;28;20025;-39
2023/12/30 10:11:54;;;;;;;26.40;9.82;;;;;;;13.50;45.64;100069.44;5043820;28;20064;-39
2023/12/30 10:14:20;;;;;;;19.60;9.30;;;;;;;14.39;44.16;100062.16;5030647;28;20059;-39
2023/12/30 10:16:46;;;;;;;16.50;9.00;;;;;;;14.03;44.60;100073.56;5022787;28;20037;-40
2023/12/30 10:19:13;;;;;;;16.80;8.82;;;;;;;13.67;45.41;100061.72;5031232;28;20032;-41
2023/12/30 10:21:39;;;;;;;16.85;9.43;;;;;;;13.41;45.75;100049.31;5031254;28;20029;-41
2023/12/30 10:24:06;;;;;;;14.15;9.02;;;;;;;14.13;45.12;100033.78;5031624;28;20033;-38
2023/12/30 10:26:33;;;;;;;15.80;8.88;;;;;;;14.40;44.25;100033.53;5026237;28;20044;-40
2023/12/30 10:28:59;;;;;;;20.00;10.02;;;;;;;14.02;44.77;100031.81;5025459;28;20148;-40
2023/12/30 10:31:24;;;;;;;12.35;8.55;;;;;;;14.23;44.60;100036.75;5023023;28;20033;-40
2023/12/30 10:33:52;;;;;;;15.18;8.70;;;;;;;14.26;46.08;100025.63;5021543;28;20413;-40
2023/12/30 10:36:18;;;;;;;14.35;8.02;;;;;;;14.69;45.13;100025.84;5023296;28;20037;-40
2023/12/30 10:38:44;;;;;;;17.75;9.00;;;;;;;14.51;44.82;100014.06;5023668;28;20030;-39
2023/12/30 10:41:09;;;;;;;14.98;8.65;;;;;;;14.43;45.87;100019.69;5021732;28;20409;-41
2023/12/30 10:43:36;;;;;;;15.73;8.90;;;;;;;14.40;46.09;100012.91;5025700;28;20036;-40
2023/12/30 10:46:03;;;;;;;15.82;8.43;;;;;;;14.91;44.93;100010.09;5022079;28;20041;-40
2023/12/30 10:48:30;;;;;;;13.18;8.32;;;;;;;14.56;45.41;100011.50;5020718;28;20033;-41
2023/12/30 10:50:57;;;;;;;17.45;8.80;;;;;;;14.47;45.17;100008.31;5024311;28;20421;-40
2023/12/30 10:53:48;;;;;;;15.68;9.25;;;;;;;14.53;46.22;100005.81;5020673;28;20048;-41
2023/12/30 10:56:20;;;;;;;16.13;8.57;;;;;;;15.02;44.37;100003.97;5022162;28;20029;-37
2023/12/30 10:58:50;;;;;;;19.27;8.93;;;;;;;14.64;45.46;99999.72;5023803;28;20073;-41
2023/12/30 11:01:16;;;;;;;21.10;10.38;;;;;;;14.71;45.92;99991.59;5023792;28;20038;-42
2023/12/30 11:03:42;;;;;;;22.35;13.05;;;;;;;14.82;45.25;99988.19;5029339;28;20072;-40
2023/12/30 11:06:26;;;;;;;20.33;10.93;;;;;;;15.28;43.61;99986.72;5032516;28;20035;-40
2023/12/30 11:08:52;;;;;;;20.27;11.60;;;;;;;14.65;44.73;99980.75;5030741;28;20040;-39
2023/12/30 11:11:19;;;;;;;17.00;10.60;;;;;;;14.17;46.25;99976.09;5030510;28;20036;-41